Time;durP1;ratioP1;P1;durP2;ratioP2;P2;SDS_P1;SDS_P2;PMS_P1;PMS_P2;Temp;Humidity;BMP_temperature;BMP_pressure;BME280_temperature;BME280_humidity;BME280_pressure;Samples;Min_cycle;Max_cycle;Signal;HPM_P1;HPM_P2
2023/03/06 00:01:19;;;;;;;;;;;;;;;-0.27;90.24;99395.63;106258;1265;22642;-58
2023/03/06 00:03:48;;;;;;;;;;;;;;;-0.27;90.18;99395.51;106202;1278;22516;-59
2023/03/06 00:06:18;;;;;;;;;;;;;;;-0.28;90.11;99393.17;106209;1275;22491;-57
2023/03/06 00:08:47;;;;;;;;;;;;;;;-0.31;89.95;99396.75;106201;1275;22550;-56
2023/03/06 00:11:16;;;;;;;;;;;;;;;-0.33;89.85;99399.39;106359;1271;25315;-58
2023/03/06 00:13:45;;;;;;;;;;;;;;;-0.34;89.91;99396.92;106422;1271;25460;-58
2023/03/06 00:16:14;;;;;;;;;;;;;;;-0.36;89.88;99393.20;106142;1278;22555;-57
2023/03/06 00:18:43;;;;;;;;;;;;;;;-0.38;89.84;99389.87;106159;1278;25329;-59
2023/03/06 00:21:13;;;;;;;;;;;;;;;-0.39;89.92;99390.35;106207;1278;25355;-57
2023/03/06 00:23:42;;;;;;;;;;;;;;;-0.40;89.82;99392.18;106206;1265;22514;-57
2023/03/06 00:26:11;;;;;;;;;;;;;;;-0.42;89.84;99392.05;106148;1279;22552;-58
2023/03/06 00:28:40;;;;;;;;;;;;;;;-0.45;89.87;99390.33;106266;1278;22510;-57
2023/03/06 00:31:10;;;;;;;;;;;;;;;-0.46;89.77;99390.84;106147;1278;22500;-56
2023/03/06 00:33:39;;;;;;;;;;;;;;;-0.50;89.71;99389.57;106209;1278;22506;-56
2023/03/06 00:36:09;;;;;;;;;;;;;;;-0.54;89.81;99387.16;106130;1264;24271;-58
2023/03/06 00:38:38;;;;;;;;;;;;;;;-0.57;89.87;99387.07;106309;1275;22715;-58
2023/03/06 00:41:10;;;;;;;;;;;;;;;-0.63;89.75;99382.04;106207;1272;22628;-55
2023/03/06 00:43:40;;;;;;;;;;;;;;;-0.69;89.90;99382.62;106199;1278;25499;-57
2023/03/06 00:46:09;;;;;;;;;;;;;;;-0.74;89.95;99381.10;106169;1272;22627;-57
2023/03/06 00:48:38;;;;;;;;;;;;;;;-0.77;90.19;99377.88;106258;1278;24199;-56
2023/03/06 00:51:07;;;;;;;;;;;;;;;-0.82;90.12;99376.09;106148;1278;22508;-58
2023/03/06 00:53:36;;;;;;;;;;;;;;;-0.86;90.25;99371.16;106218;1278;22553;-57
2023/03/06 00:56:07;;;;;;;;;;;;;;;-0.89;90.31;99371.77;106225;1272;22514;-57
2023/03/06 00:58:37;;;;;;;;;;;;;;;-0.92;90.41;99368.48;106231;1278;24784;-56
2023/03/06 01:01:06;;;;;;;;;;;;;;;-0.93;90.49;99364.17;106266;1276;22517;-57
2023/03/06 01:03:36;;;;;;;;;;;;;;;-0.94;90.42;99362.24;106212;1278;23867;-57
2023/03/06 01:06:05;;;;;;;;;;;;;;;-0.95;90.44;99360.39;106162;1273;24650;-58
2023/03/06 01:08:34;;;;;;;;;;;;;;;-0.96;90.53;99355.32;106166;1278;24257;-57
2023/03/06 01:11:03;;;;;;;;;;;;;;;-0.98;90.66;99354.58;106201;1271;24310;-59
2023/03/06 01:13:32;;;;;;;;;;;;;;;-0.95;90.65;99353.20;106205;1272;22536;-56
2023/03/06 01:16:09;;;;;;;;;;;;;;;-0.93;90.62;99347.34;106362;1278;24324;-56
2023/03/06 01:18:38;;;;;;;;;;;;;;;-0.92;90.64;99343.20;106267;1278;22505;-56
2023/03/06 01:21:08;;;;;;;;;;;;;;;-0.92;90.72;99346.09;106215;1278;25330;-58
2023/03/06 01:23:37;;;;;;;;;;;;;;;-0.93;90.73;99342.33;106218;1273;24307;-58
2023/03/06 01:26:07;;;;;;;;;;;;;;;-0.91;90.83;99338.86;106158;1272;22603;-57
2023/03/06 01:28:37;;;;;;;;;;;;;;;-0.90;90.87;99330.61;106309;1278;25268;-56
2023/03/06 01:31:08;;;;;;;;;;;;;;;-0.87;90.82;99333.21;106246;1273;25319;-58
2023/03/06 01:33:37;;;;;;;;;;;;;;;-0.85;90.94;99331.52;106348;1278;24436;-59
2023/03/06 01:36:08;;;;;;;;;;;;;;;-0.83;90.97;99328.73;106193;1278;25268;-59
2023/03/06 01:38:38;;;;;;;;;;;;;;;-0.81;90.86;99318.76;106244;1278;25287;-56
2023/03/06 01:41:09;;;;;;;;;;;;;;;-0.79;90.85;99320.30;106197;1273;22615;-58
2023/03/06 01:43:41;;;;;;;;;;;;;;;-0.78;91.01;99314.96;106198;1278;22628;-58
2023/03/06 01:46:25;;;;;;;;;;;;;;;-0.81;90.86;99316.34;106192;1265;22730;-58
2023/03/06 01:48:55;;;;;;;;;;;;;;;-0.83;90.91;99309.00;106233;1278;25367;-57
2023/03/06 01:51:26;;;;;;;;;;;;;;;-0.82;91.08;99306.72;106260;1278;25393;-58
2023/03/06 01:53:57;;;;;;;;;;;;;;;-0.81;91.15;99304.66;106334;1278;24389;-56
2023/03/06 01:56:27;;;;;;;;;;;;;;;-0.79;91.14;99306.98;106190;1278;22556;-58
2023/03/06 01:58:56;;;;;;;;;;;;;;;-0.78;91.21;99306.10;106240;1274;25463;-55
2023/03/06 02:01:25;;;;;;;;;;;;;;;-0.79;91.22;99307.52;106188;1272;22624;-56
2023/03/06 02:03:55;;;;;;;;;;;;;;;-0.79;91.28;99303.23;106226;1278;22625;-58
2023/03/06 02:06:24;;;;;;;;;;;;;;;-0.79;91.41;99304.55;106181;1272;22505;-56
2023/03/06 02:08:54;;;;;;;;;;;;;;;-0.77;91.31;99303.79;106173;1264;23023;-59
2023/03/06 02:11:24;;;;;;;;;;;;;;;-0.74;91.61;99299.13;106267;1271;24224;-59
2023/03/06 02:13:54;;;;;;;;;;;;;;;-0.71;91.47;99297.57;106463;1272;22726;-59
2023/03/06 02:16:26;;;;;;;;;;;;;;;-0.71;91.52;99295.84;106278;1265;24257;-59
2023/03/06 02:18:56;;;;;;;;;;;;;;;-0.71;91.71;99298.03;106299;1278;22554;-58
2023/03/06 02:21:27;;;;;;;;;;;;;;;-0.70;91.74;99299.73;106176;1278;25299;-58
2023/03/06 02:24:02;;;;;;;;;;;;;;;-0.68;91.82;99296.55;106314;1273;24377;-56
2023/03/06 02:26:33;;;;;;;;;;;;;;;-0.67;91.90;99284.16;106187;1273;23061;-58
2023/03/06 02:29:02;;;;;;;;;;;;;;;-0.65;91.98;99283.58;106311;1278;25319;-59
2023/03/06 02:31:34;;;;;;;;;;;;;;;-0.64;92.10;99279.54;106189;1278;22512;-55
2023/03/06 02:34:05;;;;;;;;;;;;;;;-0.64;92.09;99276.17;106264;1278;25357;-58
2023/03/06 02:36:37;;;;;;;;;;;;;;;-0.64;92.12;99271.89;106331;1278;24968;-57
2023/03/06 02:39:07;;;;;;;;;;;;;;;-0.62;92.33;99271.29;106279;1278;22502;-57
2023/03/06 02:41:37;;;;;;;;;;;;;;;-0.62;92.45;99268.94;106229;1278;24307;-58
2023/03/06 02:44:06;;;;;;;;;;;;;;;-0.62;92.55;99269.00;106215;1264;22892;-58
2023/03/06 02:46:35;;;;;;;;;;;;;;;-0.63;92.60;99262.20;106226;1276;24197;-56
2023/03/06 02:49:04;;;;;;;;;;;;;;;-0.62;92.65;99257.41;106245;1278;22629;-59
2023/03/06 02:51:33;;;;;;;;;;;;;;;-0.60;92.60;99261.77;106171;1278;22499;-57
2023/03/06 02:54:02;;;;;;;;;;;;;;;-0.59;92.78;99256.72;106229;1273;22700;-55
2023/03/06 02:56:32;;;;;;;;;;;;;;;-0.60;92.85;99251.95;106187;1273;22526;-58
2023/03/06 02:59:01;;;;;;;;;;;;;;;-0.61;92.79;99247.28;106251;1273;25561;-55
2023/03/06 03:01:30;;;;;;;;;;;;;;;-0.60;92.83;99247.34;106197;1273;22711;-58
2023/03/06 03:03:59;;;;;;;;;;;;;;;-0.58;92.91;99244.45;106243;1278;26523;-58
2023/03/06 03:06:28;;;;;;;;;;;;;;;-0.55;92.90;99239.16;106261;1275;25242;-57
2023/03/06 03:08:58;;;;;;;;;;;;;;;-0.54;92.98;99233.89;106254;1278;22497;-57
2023/03/06 03:11:27;;;;;;;;;;;;;;;-0.54;92.97;99234.27;106240;1278;22513;-55
2023/03/06 03:13:56;;;;;;;;;;;;;;;-0.51;92.92;99233.04;106212;1274;22610;-58
2023/03/06 03:16:25;;;;;;;;;;;;;;;-0.49;93.00;99229.84;106191;1278;25285;-59
2023/03/06 03:18:54;;;;;;;;;;;;;;;-0.48;92.97;99221.98;106273;1278;22755;-57
2023/03/06 03:21:23;;;;;;;;;;;;;;;-0.47;92.99;99221.88;106147;1278;22491;-57
2023/03/06 03:23:52;;;;;;;;;;;;;;;-0.46;93.03;99221.71;106175;1278;22515;-56
2023/03/06 03:26:22;;;;;;;;;;;;;;;-0.45;93.11;99216.81;106207;1278;24238;-56
2023/03/06 03:28:51;;;;;;;;;;;;;;;-0.44;93.10;99212.09;106253;1276;22544;-56
2023/03/06 03:31:21;;;;;;;;;;;;;;;-0.43;93.09;99209.16;106227;1278;22550;-58
2023/03/06 03:33:50;;;;;;;;;;;;;;;-0.43;93.09;99205.94;106175;1278;25636;-55
2023/03/06 03:36:19;;;;;;;;;;;;;;;-0.43;93.22;99200.31;106272;1278;22524;-58
2023/03/06 03:38:48;;;;;;;;;;;;;;;-0.43;93.22;99197.95;106180;1278;22640;-56
2023/03/06 03:41:18;;;;;;;;;;;;;;;-0.42;93.33;99197.39;106275;1278;24282;-55
2023/03/06 03:43:47;;;;;;;;;;;;;;;-0.41;93.44;99189.23;106399;1264;22515;-56
2023/03/06 03:46:16;;;;;;;;;;;;;;;-0.42;93.42;99186.11;106333;1264;22505;-56
2023/03/06 03:48:45;;;;;;;;;;;;;;;-0.40;93.48;99188.19;106391;1277;22553;-57
2023/03/06 03:51:16;;;;;;;;;;;;;;;-0.40;93.50;99184.50;106314;1274;22613;-58
2023/03/06 03:53:45;;;;;;;;;;;;;;;-0.39;93.60;99183.91;106377;1278;22624;-58
2023/03/06 03:56:15;;;;;;;;;;;;;;;-0.37;93.69;99183.00;106268;1273;22766;-55
2023/03/06 03:58:44;;;;;;;;;;;;;;;-0.36;93.77;99183.14;106270;1278;22504;-58
2023/03/06 04:01:13;;;;;;;;;;;;;;;-0.36;93.75;99178.98;106262;1264;25276;-58
2023/03/06 04:03:42;;;;;;;;;;;;;;;-0.36;93.79;99179.30;106323;1278;22772;-57
2023/03/06 04:06:11;;;;;;;;;;;;;;;-0.35;93.90;99175.98;106267;1278;22525;-56
2023/03/06 04:08:41;;;;;;;;;;;;;;;-0.33;93.96;99172.15;106402;1274;24228;-58
2023/03/06 04:11:10;;;;;;;;;;;;;;;-0.32;93.97;99169.86;106271;1278;25315;-59
2023/03/06 04:13:39;;;;;;;;;;;;;;;-0.32;94.06;99170.98;106460;1278;22497;-60
2023/03/06 04:16:09;;;;;;;;;;;;;;;-0.33;94.04;99164.41;106556;1264;25165;-58
2023/03/06 04:18:38;;;;;;;;;;;;;;;-0.32;94.14;99161.73;106252;1271;25364;-55
2023/03/06 04:21:07;;;;;;;;;;;;;;;-0.31;94.20;99158.73;106248;1278;22699;-57
2023/03/06 04:23:36;;;;;;;;;;;;;;;-0.29;94.09;99153.42;106346;1264;24215;-56
2023/03/06 04:26:06;;;;;;;;;;;;;;;-0.28;94.24;99147.59;106298;1264;22542;-58
2023/03/06 04:28:35;;;;;;;;;;;;;;;-0.27;94.26;99145.94;106254;1272;22737;-55
2023/03/06 04:31:05;;;;;;;;;;;;;;;-0.28;94.32;99141.48;106263;1273;24272;-57
2023/03/06 04:33:34;;;;;;;;;;;;;;;-0.27;94.44;99139.96;106314;1278;23022;-56
2023/03/06 04:36:04;;;;;;;;;;;;;;;-0.27;94.44;99136.73;106380;1278;22742;-55
2023/03/06 04:38:33;;;;;;;;;;;;;;;-0.27;94.53;99138.13;106290;1278;24251;-55
2023/03/06 04:41:02;;;;;;;;;;;;;;;-0.27;94.51;99133.29;106201;1271;22571;-56
2023/03/06 04:43:31;;;;;;;;;;;;;;;-0.26;94.57;99133.89;106298;1278;25331;-58
2023/03/06 04:46:00;;;;;;;;;;;;;;;-0.26;94.62;99137.17;106389;1278;25525;-56
2023/03/06 04:48:29;;;;;;;;;;;;;;;-0.26;94.78;99132.66;106311;1273;26630;-56
2023/03/06 04:50:58;;;;;;;;;;;;;;;-0.26;94.75;99125.99;106315;1277;25224;-56
2023/03/06 04:53:27;;;;;;;;;;;;;;;-0.26;94.92;99132.96;106327;1273;22639;-52
2023/03/06 04:55:57;;;;;;;;;;;;;;;-0.26;95.01;99138.29;106243;1260;22743;-52
2023/03/06 04:58:26;;;;;;;;;;;;;;;-0.27;95.02;99129.54;106238;1264;22768;-52
2023/03/06 05:00:56;;;;;;;;;;;;;;;-0.26;95.10;99127.06;106402;1273;22673;-52
2023/03/06 05:03:25;;;;;;;;;;;;;;;-0.24;95.28;99126.32;106401;1263;24475;-52
2023/03/06 05:05:54;;;;;;;;;;;;;;;-0.23;95.34;99128.25;106302;1277;23000;-53
2023/03/06 05:08:23;;;;;;;;;;;;;;;-0.21;95.39;99133.77;106346;1277;22547;-52
2023/03/06 05:10:56;;;;;;;;;;;;;;;-0.19;95.46;99129.79;106367;1264;22579;-54
2023/03/06 05:13:25;;;;;;;;;;;;;;;-0.16;95.52;99115.84;106357;1271;22509;-55
2023/03/06 05:15:54;;;;;;;;;;;;;;;-0.14;95.63;99120.02;106513;1270;22521;-52
2023/03/06 05:18:23;;;;;;;;;;;;;;;-0.14;95.75;99130.60;106534;1273;22502;-55
2023/03/06 05:20:58;;;;;;;;;;;;;;;-0.13;95.80;99130.89;106336;1278;25587;-53
2023/03/06 05:23:27;;;;;;;;;;;;;;;-0.13;95.79;99124.14;106291;1277;22499;-52
2023/03/06 05:25:57;;;;;;;;;;;;;;;-0.10;95.81;99118.50;106362;1278;26524;-53
2023/03/06 05:28:27;;;;;;;;;;;;;;;-0.08;96.00;99126.80;106221;1278;22576;-55
2023/03/06 05:30:56;;;;;;;;;;;;;;;-0.06;96.03;99131.45;106505;1278;25358;-53
2023/03/06 05:33:26;;;;;;;;;;;;;;;-0.05;96.01;99127.30;106317;1277;24308;-55
2023/03/06 05:35:56;;;;;;;;;;;;;;;-0.05;95.97;99128.21;106611;1273;22614;-53
2023/03/06 05:38:25;;;;;;;;;;;;;;;-0.03;95.98;99124.64;110195;1267;22477;-56
2023/03/06 05:40:54;;;;;;;;;;;;;;;-0.02;95.99;99120.91;107705;1264;24334;-56
2023/03/06 05:43:24;;;;;;;;;;;;;;;0.02;95.92;99119.48;106305;1271;22514;-54
2023/03/06 05:45:59;;;;;;;;;;;;;;;0.05;95.87;99121.74;106353;1271;22630;-53
2023/03/06 05:48:28;;;;;;;;;;;;;;;0.08;95.85;99120.90;106364;1273;22554;-56
2023/03/06 05:50:58;;;;;;;;;;;;;;;0.09;95.82;99121.17;106424;1274;24297;-55
2023/03/06 05:53:28;;;;;;;;;;;;;;;0.10;95.90;99120.84;106316;1276;25328;-54
2023/03/06 05:55:58;;;;;;;;;;;;;;;0.11;95.90;99119.24;106335;1272;22628;-54
2023/03/06 05:58:30;;;;;;;;;;;;;;;0.12;95.94;99117.10;106399;1263;22497;-56
2023/03/06 06:00:59;;;;;;;;;;;;;;;0.12;96.02;99116.05;106390;1278;22579;-54
2023/03/06 06:03:28;;;;;;;;;;;;;;;0.14;96.03;99114.59;106536;1273;24281;-55
2023/03/06 06:05:57;;;;;;;;;;;;;;;0.17;96.09;99112.85;106333;1263;22994;-54
2023/03/06 06:08:27;;;;;;;;;;;;;;;0.19;96.18;99114.39;106365;1278;22504;-55
2023/03/06 06:10:56;;;;;;;;;;;;;;;0.20;96.22;99113.40;106327;1264;24397;-55
2023/03/06 06:13:25;;;;;;;;;;;;;;;0.22;96.30;99114.21;106719;1278;22597;-53
2023/03/06 06:15:55;;;;;;;;;;;;;;;0.24;96.31;99114.77;106391;1278;22624;-57
2023/03/06 06:18:24;;;;;;;;;;;;;;;0.28;96.35;99114.75;106356;1276;23919;-52
2023/03/06 06:20:53;;;;;;;;;;;;;;;0.31;96.33;99116.45;106176;1264;22510;-55
2023/03/06 06:23:22;;;;;;;;;;;;;;;0.34;96.42;99119.88;106344;1264;24241;-54
2023/03/06 06:25:52;;;;;;;;;;;;;;;0.37;96.41;99123.08;106315;1278;22573;-53
2023/03/06 06:28:21;;;;;;;;;;;;;;;0.41;96.39;99124.32;106277;1278;23156;-56
2023/03/06 06:30:50;;;;;;;;;;;;;;;0.45;96.35;99123.86;106211;1278;22601;-53
2023/03/06 06:33:20;;;;;;;;;;;;;;;0.51;96.34;99128.55;106344;1272;23854;-55
2023/03/06 06:35:49;;;;;;;;;;;;;;;0.55;96.18;99131.10;106147;1260;22510;-54
2023/03/06 06:38:18;;;;;;;;;;;;;;;0.59;96.22;99132.65;106393;1271;25381;-53
2023/03/06 06:40:47;;;;;;;;;;;;;;;0.62;96.23;99134.64;106241;1271;22542;-55
2023/03/06 06:43:17;;;;;;;;;;;;;;;0.66;96.12;99137.19;106488;1278;24265;-53
2023/03/06 06:45:47;;;;;;;;;;;;;;;0.69;96.02;99136.46;106452;1278;24260;-55
2023/03/06 06:48:16;;;;;;;;;;;;;;;0.73;95.89;99140.13;106364;1278;23977;-55
2023/03/06 06:50:45;;;;;;;;;;;;;;;0.77;95.83;99135.44;106314;1278;22579;-55
2023/03/06 06:53:14;;;;;;;;;;;;;;;0.82;95.74;99137.63;106302;1278;25302;-54
2023/03/06 06:55:43;;;;;;;;;;;;;;;0.87;95.61;99139.61;106369;1278;22514;-55
2023/03/06 06:58:12;;;;;;;;;;;;;;;0.91;95.49;99132.17;106344;1278;24255;-53
2023/03/06 07:00:42;;;;;;;;;;;;;;;0.95;95.36;99132.53;106383;1278;24382;-53
2023/03/06 07:03:12;;;;;;;;;;;;;;;1.00;95.37;99133.78;106216;1271;23648;-52
2023/03/06 07:05:41;;;;;;;;;;;;;;;1.04;95.24;99130.98;106416;1274;22509;-53
2023/03/06 07:08:10;;;;;;;;;;;;;;;1.07;95.00;99133.48;106343;1267;23455;-55
2023/03/06 07:10:40;;;;;;;;;;;;;;;1.09;94.79;99134.43;106484;1278;24272;-55
2023/03/06 07:13:09;;;;;;;;;;;;;;;1.13;94.88;99134.56;106337;1272;25349;-53
2023/03/06 07:15:38;;;;;;;;;;;;;;;1.16;94.83;99136.45;106361;1278;22498;-56
2023/03/06 07:18:07;;;;;;;;;;;;;;;1.20;94.64;99139.96;106333;1277;22556;-55
2023/03/06 07:20:37;;;;;;;;;;;;;;;1.24;94.49;99137.17;106409;1264;24292;-55
2023/03/06 07:23:07;;;;;;;;;;;;;;;1.28;94.45;99135.21;106307;1264;22506;-52
2023/03/06 07:25:36;;;;;;;;;;;;;;;1.34;94.46;99134.02;106318;1278;25540;-52
2023/03/06 07:28:06;;;;;;;;;;;;;;;1.39;94.50;99132.72;106338;1258;22528;-55
2023/03/06 07:30:35;;;;;;;;;;;;;;;1.43;94.32;99136.42;106305;1278;22506;-53
2023/03/06 07:33:04;;;;;;;;;;;;;;;1.47;94.17;99141.48;106344;1278;23102;-53
2023/03/06 07:35:34;;;;;;;;;;;;;;;1.51;93.99;99141.83;106322;1263;24272;-53
2023/03/06 07:38:03;;;;;;;;;;;;;;;1.55;93.80;99144.30;106392;1278;22511;-53
2023/03/06 07:40:32;;;;;;;;;;;;;;;1.58;93.57;99146.31;106291;1278;22519;-53
2023/03/06 07:43:01;;;;;;;;;;;;;;;1.61;93.40;99145.98;106379;1278;22607;-53
2023/03/06 07:45:30;;;;;;;;;;;;;;;1.65;93.36;99148.48;106384;1278;22590;-53
2023/03/06 07:48:00;;;;;;;;;;;;;;;1.71;93.30;99151.69;106338;1271;22522;-53
2023/03/06 07:50:29;;;;;;;;;;;;;;;1.77;93.28;99151.87;106362;1267;25337;-57
2023/03/06 07:52:59;;;;;;;;;;;;;;;1.83;93.11;99151.09;106450;1278;22602;-55
2023/03/06 07:55:28;;;;;;;;;;;;;;;1.89;92.89;99151.74;106306;1263;22501;-52
2023/03/06 07:57:57;;;;;;;;;;;;;;;1.95;92.60;99153.30;106236;1278;23280;-56
2023/03/06 08:00:26;;;;;;;;;;;;;;;2.00;92.52;99154.34;106358;1278;22551;-53
2023/03/06 08:02:55;;;;;;;;;;;;;;;2.05;92.44;99154.32;106466;1272;22548;-55
2023/03/06 08:05:25;;;;;;;;;;;;;;;2.11;92.41;99156.77;106297;1264;22568;-52
2023/03/06 08:07:54;;;;;;;;;;;;;;;2.16;92.20;99154.55;106486;1274;25484;-54
2023/03/06 08:10:23;;;;;;;;;;;;;;;2.20;92.05;99155.34;106350;1272;22595;-53
2023/03/06 08:12:52;;;;;;;;;;;;;;;2.25;92.01;99155.65;106345;1271;22497;-54
2023/03/06 08:15:22;;;;;;;;;;;;;;;2.28;91.96;99154.88;106366;1271;24218;-55
2023/03/06 08:17:51;;;;;;;;;;;;;;;2.33;91.99;99156.05;106456;1264;23296;-55
2023/03/06 08:20:21;;;;;;;;;;;;;;;2.37;91.96;99154.23;106407;1275;25379;-55
2023/03/06 08:22:50;;;;;;;;;;;;;;;2.42;91.99;99153.20;106211;1271;22560;-54
2023/03/06 08:25:19;;;;;;;;;;;;;;;2.46;91.80;99149.20;106381;1263;24271;-52
2023/03/06 08:27:48;;;;;;;;;;;;;;;2.51;91.85;99152.81;106217;1278;22510;-54
2023/03/06 08:30:20;;;;;;;;;;;;;;;2.53;91.59;99153.10;106184;1274;22505;-56
2023/03/06 08:32:49;;;;;;;;;;;;;;;2.55;91.43;99149.73;106301;1264;25479;-54
2023/03/06 08:35:19;;;;;;;;;;;;;;;2.54;91.07;99154.80;106368;1278;25705;-56
2023/03/06 08:37:48;;;;;;;;;;;;;;;2.55;91.12;99155.00;106216;1278;23723;-56
2023/03/06 08:40:18;;;;;;;;;;;;;;;2.56;90.89;99155.84;106425;1274;22512;-55
2023/03/06 08:42:49;;;;;;;;;;;;;;;2.59;90.97;99154.33;106302;1278;25329;-54
2023/03/06 08:45:18;;;;;;;;;;;;;;;2.63;91.04;99154.63;106409;1263;22509;-56
2023/03/06 08:47:47;;;;;;;;;;;;;;;2.67;91.15;99154.80;106284;1271;22948;-56
2023/03/06 08:50:17;;;;;;;;;;;;;;;2.72;91.30;99151.27;106333;1271;24375;-55
2023/03/06 08:52:47;;;;;;;;;;;;;;;2.78;91.28;99153.02;106453;1272;22508;-56
2023/03/06 08:55:16;;;;;;;;;;;;;;;2.80;90.35;99152.55;106240;1271;184814;-54
2023/03/06 08:57:46;;;;;;;;;;;;;;;2.80;90.36;99156.79;106356;1278;25423;-53
2023/03/06 09:00:16;;;;;;;;;;;;;;;2.81;90.00;99156.04;106298;1270;25336;-54
2023/03/06 09:02:45;;;;;;;;;;;;;;;2.81;89.94;99154.65;106454;1274;26488;-52
2023/03/06 09:05:15;;;;;;;;;;;;;;;2.81;89.92;99151.50;106346;1264;23163;-55
2023/03/06 09:07:44;;;;;;;;;;;;;;;2.82;89.77;99151.23;106373;1274;22498;-55
2023/03/06 09:10:15;;;;;;;;;;;;;;;2.83;89.71;99148.56;106422;1278;23164;-53
2023/03/06 09:12:44;;;;;;;;;;;;;;;2.86;89.85;99147.20;106438;1278;24228;-56
2023/03/06 09:15:14;;;;;;;;;;;;;;;2.90;89.98;99145.63;106459;1278;22501;-57
2023/03/06 09:17:43;;;;;;;;;;;;;;;2.95;90.10;99147.39;106487;1278;24293;-54
2023/03/06 09:20:13;;;;;;;;;;;;;;;3.01;90.04;99144.63;106345;1278;25331;-54
2023/03/06 09:22:44;;;;;;;;;;;;;;;3.06;89.78;99147.24;106679;1260;22525;-54
2023/03/06 09:25:18;;;;;;;;;;;;;;;3.13;89.85;99148.15;106335;1278;23231;-55
2023/03/06 09:27:48;;;;;;;;;;;;;;;3.20;89.85;99148.42;106251;1278;25318;-53
2023/03/06 09:30:18;;;;;;;;;;;;;;;3.27;89.80;99149.30;106348;1275;25306;-54
2023/03/06 09:32:47;;;;;;;;;;;;;;;3.34;89.16;99146.07;106414;1263;22495;-56
2023/03/06 09:35:17;;;;;;;;;;;;;;;3.39;89.05;99145.73;106365;1271;25276;-55
2023/03/06 09:37:46;;;;;;;;;;;;;;;3.45;88.65;99144.11;106404;1271;22533;-53
2023/03/06 09:40:20;;;;;;;;;;;;;;;3.46;87.96;99143.50;106349;1264;25360;-54
2023/03/06 09:42:50;;;;;;;;;;;;;;;3.47;87.98;99146.12;106393;1278;25521;-57
2023/03/06 09:45:20;;;;;;;;;;;;;;;3.51;88.23;99142.66;106331;1278;22660;-54
2023/03/06 09:47:52;;;;;;;;;;;;;;;3.54;87.67;99138.68;106222;1271;23982;-53
2023/03/06 09:50:34;;;;;;;;;;;;;;;3.56;87.71;99143.41;106361;1278;22498;-53
2023/03/06 09:53:18;;;;;;;;;;;;;;;3.60;87.81;99146.60;106254;1278;24332;-53
2023/03/06 09:55:50;;;;;;;;;;;;;;;3.63;86.79;99145.98;106281;1278;24251;-54
2023/03/06 09:58:21;;;;;;;;;;;;;;;3.65;87.14;99143.14;106389;1264;22548;-53
2023/03/06 10:00:56;;;;;;;;;;;;;;;3.72;87.70;99147.30;106312;1274;24660;-54
2023/03/06 10:03:27;;;;;;;;;;;;;;;3.80;87.64;99141.04;106388;1267;25347;-52
2023/03/06 10:05:59;;;;;;;;;;;;;;;3.85;86.68;99142.35;106384;1278;22558;-53
2023/03/06 10:08:30;;;;;;;;;;;;;;;3.90;86.50;99140.66;106442;1271;22515;-55
2023/03/06 10:11:02;;;;;;;;;;;;;;;3.97;86.60;99142.08;106388;1271;25385;-53
2023/03/06 10:13:36;;;;;;;;;;;;;;;4.05;86.90;99135.81;106359;1278;25352;-54
2023/03/06 10:16:12;;;;;;;;;;;;;;;4.14;86.73;99133.92;106348;1272;22509;-56
2023/03/06 10:18:41;;;;;;;;;;;;;;;4.22;87.11;99129.54;106348;1278;22496;-55
2023/03/06 10:21:21;;;;;;;;;;;;;;;4.30;86.96;99127.23;106467;1274;22814;-53
2023/03/06 10:23:53;;;;;;;;;;;;;;;4.40;87.13;99125.76;106333;1278;25513;-53
2023/03/06 10:26:25;;;;;;;;;;;;;;;4.49;87.26;99123.40;106319;1278;22628;-53
2023/03/06 10:28:59;;;;;;;;;;;;;;;4.55;86.08;99121.39;106411;1264;24250;-53
2023/03/06 10:31:29;;;;;;;;;;;;;;;4.59;86.30;99116.00;106335;1263;25550;-55
2023/03/06 10:34:01;;;;;;;;;;;;;;;4.64;85.97;99111.17;106327;1278;24286;-53
2023/03/06 10:36:31;;;;;;;;;;;;;;;4.70;85.59;99112.50;106394;1278;22501;-54
2023/03/06 10:39:00;;;;;;;;;;;;;;;4.73;85.27;99107.10;106311;1265;22502;-54
2023/03/06 10:41:30;;;;;;;;;;;;;;;4.78;85.24;99109.36;106296;1265;24398;-58
2023/03/06 10:44:19;;;;;;;;;;;;;;;4.84;85.34;99105.59;106373;1277;26711;-52
2023/03/06 10:46:50;;;;;;;;;;;;;;;4.90;85.48;99100.83;106255;1278;22509;-53
2023/03/06 10:49:31;;;;;;;;;;;;;;;4.99;85.20;99095.77;106366;1270;22466;-55
2023/03/06 10:52:02;;;;;;;;;;;;;;;5.06;85.21;99092.58;106365;1278;25333;-56
2023/03/06 10:54:32;;;;;;;;;;;;;;;5.12;85.13;99091.25;106406;1271;25321;-54
2023/03/06 10:57:17;;;;;;;;;;;;;;;5.19;84.59;99088.45;106361;1278;22517;-52
2023/03/06 10:59:52;;;;;;;;;;;;;;;5.24;84.51;99083.77;106312;1271;24264;-55
2023/03/06 11:02:30;;;;;;;;;;;;;;;5.30;84.24;99078.99;106382;1278;22564;-54
2023/03/06 11:05:00;;;;;;;;;;;;;;;5.33;83.64;99078.91;106380;1265;24213;-53
2023/03/06 11:07:30;;;;;;;;;;;;;;;5.33;83.77;99071.63;106296;1278;25569;-52
2023/03/06 11:10:05;;;;;;;;;;;;;;;5.37;84.09;99072.86;106355;1278;22574;-54
2023/03/06 11:12:35;;;;;;;;;;;;;;;5.41;83.98;99068.32;106334;1278;22501;-54
2023/03/06 11:15:24;;;;;;;;;;;;;;;5.41;83.36;99066.92;106283;1274;22511;-55
2023/03/06 11:17:58;;;;;;;;;;;;;;;5.41;82.98;99063.33;106217;1278;22627;-53
2023/03/06 11:20:29;;;;;;;;;;;;;;;5.40;82.73;99065.64;106664;1278;22953;-53
2023/03/06 11:23:03;;;;;;;;;;;;;;;5.40;82.68;99064.63;106375;1278;22509;-55
2023/03/06 11:25:34;;;;;;;;;;;;;;;5.41;82.92;99064.15;106365;1278;24248;-56
2023/03/06 11:28:07;;;;;;;;;;;;;;;5.43;82.10;99061.87;106373;1278;22879;-55
2023/03/06 11:30:39;;;;;;;;;;;;;;;5.43;82.35;99060.58;106548;1272;22645;-53
2023/03/06 11:33:14;;;;;;;;;;;;;;;5.45;82.17;99057.25;106711;1271;22514;-53
2023/03/06 11:35:50;;;;;;;;;;;;;;;5.46;82.03;99050.91;106537;1271;22556;-54
2023/03/06 11:38:22;;;;;;;;;;;;;;;5.47;81.54;99052.19;106450;1266;22504;-59
2023/03/06 11:40:53;;;;;;;;;;;;;;;5.48;79.63;99054.27;106346;1271;22619;-53
2023/03/06 11:43:25;;;;;;;;;;;;;;;5.46;79.45;99051.98;106351;1272;22514;-54
2023/03/06 11:45:58;;;;;;;;;;;;;;;5.43;77.34;99049.69;106553;1278;25611;-54
2023/03/06 11:48:31;;;;;;;;;;;;;;;5.39;77.55;99050.31;106493;1271;24275;-53
2023/03/06 11:51:05;;;;;;;;;;;;;;;5.37;78.32;99048.75;106409;1264;24690;-55
2023/03/06 11:53:35;;;;;;;;;;;;;;;5.41;79.00;99044.76;106327;1271;24287;-57
2023/03/06 11:56:09;;;;;;;;;;;;;;;5.44;77.10;99045.19;106507;1271;25520;-56
2023/03/06 11:58:46;;;;;;;;;;;;;;;5.46;77.18;99041.48;106365;1271;25358;-53
2023/03/06 12:01:22;;;;;;;;;;;;;;;5.50;77.69;99036.61;106293;1263;22504;-55
2023/03/06 12:04:01;;;;;;;;;;;;;;;5.52;76.41;99032.02;106299;1271;24285;-53
2023/03/06 12:06:34;;;;;;;;;;;;;;;5.55;77.08;99032.96;106503;1271;25329;-56
2023/03/06 12:09:16;;;;;;;;;;;;;;;5.58;76.38;99033.34;106512;1278;22517;-57
2023/03/06 12:11:48;;;;;;;;;;;;;;;5.58;76.04;99028.30;106333;1278;24263;-53
2023/03/06 12:14:26;;;;;;;;;;;;;;;5.59;76.30;99029.39;106298;1278;22510;-53
2023/03/06 12:17:04;;;;;;;;;;;;;;;5.62;75.99;99023.85;106228;1263;25909;-55
2023/03/06 12:19:39;;;;;;;;;;;;;;;5.66;75.14;99025.79;106247;1264;22500;-57
2023/03/06 12:22:20;;;;;;;;;;;;;;;5.66;73.63;99020.95;106463;1274;25546;-57
2023/03/06 12:24:55;;;;;;;;;;;;;;;5.62;72.75;99020.22;106304;1265;24217;-53
2023/03/06 12:27:28;;;;;;;;;;;;;;;5.59;74.24;99013.17;106288;1278;22527;-53
2023/03/06 12:30:10;;;;;;;;;;;;;;;5.60;74.74;99010.92;106369;1278;24218;-55
2023/03/06 12:32:48;;;;;;;;;;;;;;;5.63;74.48;99009.17;106286;1278;22516;-54
2023/03/06 12:35:26;;;;;;;;;;;;;;;5.66;74.42;99004.29;106130;1278;22529;-54
2023/03/06 12:38:05;;;;;;;;;;;;;;;5.70;74.22;99001.29;106516;1278;22511;-55
2023/03/06 12:40:46;;;;;;;;;;;;;;;5.73;74.16;99000.19;106301;1278;22603;-56
2023/03/06 12:43:33;;;;;;;;;;;;;;;5.75;73.68;98994.29;106400;1274;22504;-55
2023/03/06 12:46:08;;;;;;;;;;;;;;;5.72;73.12;98992.67;106216;1271;25220;-54
2023/03/06 12:48:39;;;;;;;;;;;;;;;5.73;73.24;98993.45;106377;1278;22509;-57
2023/03/06 12:51:10;;;;;;;;;;;;;;;5.75;73.10;98993.99;106248;1256;22982;-55
2023/03/06 12:53:41;;;;;;;;;;;;;;;5.75;71.49;98994.38;106452;1271;24345;-53
2023/03/06 12:56:14;;;;;;;;;;;;;;;5.75;71.72;98990.05;106225;1271;22488;-56
2023/03/06 12:58:51;;;;;;;;;;;;;;;5.75;72.07;98986.47;106185;1271;25263;-54
2023/03/06 13:01:40;;;;;;;;;;;;;;;5.76;71.84;98984.78;106437;1278;22497;-57